createdAt,value
2023-05-19T00:00:50.490Z,47.05
2023-05-19T00:01:48.200Z,46.57
2023-05-19T00:02:48.351Z,48.02
2023-05-19T00:03:48.158Z,47.70
2023-05-19T00:04:48.172Z,46.89
2023-05-19T00:05:48.596Z,47.05
2023-05-19T00:06:48.176Z,46.57
2023-05-19T00:07:48.144Z,47.53
2023-05-19T00:08:48.124Z,46.57
2023-05-19T00:09:48.115Z,47.05
2023-05-19T00:10:48.128Z,45.92
2023-05-19T00:11:48.113Z,46.41
2023-05-19T00:12:48.194Z,46.25
2023-05-19T00:13:48.110Z,46.25
2023-05-19T00:14:48.090Z,46.57
2023-05-19T00:15:48.138Z,45.44
2023-05-19T00:16:48.063Z,45.44
2023-05-19T00:17:48.092Z,46.89
2023-05-19T00:18:48.065Z,46.41
2023-05-19T00:19:48.160Z,45.76
2023-05-19T00:20:48.043Z,46.73
2023-05-19T00:21:48.067Z,47.05
2023-05-19T00:22:48.038Z,47.05
2023-05-19T00:23:48.017Z,47.37
2023-05-19T00:24:48.012Z,47.05
2023-05-19T00:25:48.015Z,46.25
2023-05-19T00:26:48.004Z,47.53
2023-05-19T00:27:47.999Z,47.37
2023-05-19T00:28:47.975Z,46.41
2023-05-19T00:29:47.997Z,45.92
2023-05-19T00:30:47.963Z,46.41
2023-05-19T00:31:48.017Z,46.41
2023-05-19T00:32:48.003Z,45.92
2023-05-19T00:33:47.948Z,45.92
2023-05-19T00:34:47.956Z,45.92
2023-05-19T00:35:48.108Z,46.41
2023-05-19T00:36:47.934Z,46.25
2023-05-19T00:37:47.922Z,46.73
2023-05-19T00:38:47.912Z,46.57
2023-05-19T00:39:47.912Z,47.37
2023-05-19T00:40:47.935Z,46.25
2023-05-19T00:41:47.895Z,45.28
2023-05-19T00:42:47.901Z,46.25
2023-05-19T00:43:47.874Z,46.08
2023-05-19T00:44:47.876Z,46.25
2023-05-19T00:45:47.862Z,46.57
2023-05-19T00:46:47.946Z,47.05
2023-05-19T00:47:47.872Z,47.37
2023-05-19T00:48:47.845Z,48.34
2023-05-19T00:49:47.840Z,47.21
2023-05-19T00:50:47.846Z,46.73
2023-05-19T00:51:47.848Z,46.73
2023-05-19T00:52:47.814Z,47.37
2023-05-19T00:53:47.803Z,47.37
2023-05-19T00:54:47.810Z,46.41
2023-05-19T00:55:47.800Z,46.89
2023-05-19T00:56:47.801Z,47.05
2023-05-19T00:57:47.791Z,47.21
2023-05-19T00:58:47.783Z,48.02
2023-05-19T00:59:47.764Z,47.86
2023-05-19T01:00:47.758Z,46.89
2023-05-19T01:01:47.747Z,47.53
2023-05-19T01:02:47.845Z,47.37
2023-05-19T01:03:47.808Z,46.73
2023-05-19T01:04:47.734Z,47.37
2023-05-19T01:05:47.713Z,46.89
2023-05-19T01:06:47.720Z,45.92
2023-05-19T01:07:47.721Z,46.73
2023-05-19T01:08:47.717Z,46.08
2023-05-19T01:09:47.692Z,45.76
2023-05-19T01:10:47.686Z,45.92
2023-05-19T01:11:47.681Z,46.41
2023-05-19T01:12:47.664Z,47.21
2023-05-19T01:13:47.690Z,46.89
2023-05-19T01:14:47.662Z,47.05
2023-05-19T01:15:47.649Z,46.08
2023-05-19T01:16:47.717Z,46.25
2023-05-19T01:17:47.700Z,45.76
2023-05-19T01:18:47.724Z,46.41
2023-05-19T01:19:47.622Z,46.25
2023-05-19T01:20:47.616Z,46.57
2023-05-19T01:21:47.609Z,46.73
2023-05-19T01:22:47.622Z,46.25
2023-05-19T01:23:48.593Z,46.25
2023-05-19T01:24:47.583Z,47.05
2023-05-19T01:25:47.576Z,47.53
2023-05-19T01:26:47.575Z,46.57
2023-05-19T01:27:47.617Z,46.89
2023-05-19T01:28:48.556Z,45.92
2023-05-19T01:29:47.557Z,46.57
2023-05-19T01:30:47.557Z,47.37
2023-05-19T01:31:47.588Z,46.57
2023-05-19T01:32:47.559Z,48.02
2023-05-19T01:33:47.555Z,47.70
2023-05-19T01:34:47.533Z,46.73
2023-05-19T01:35:47.520Z,46.73
2023-05-19T01:36:47.513Z,47.37
2023-05-19T01:37:47.497Z,47.37
2023-05-19T01:38:47.517Z,47.37
2023-05-19T01:39:47.513Z,48.82
2023-05-19T01:40:47.484Z,47.53
2023-05-19T01:41:47.494Z,48.34
2023-05-19T01:42:47.467Z,47.70
2023-05-19T01:43:48.537Z,47.21
2023-05-19T01:44:47.465Z,47.05
2023-05-19T01:45:47.473Z,47.21
2023-05-19T01:46:47.519Z,47.21
2023-05-19T01:47:47.496Z,48.34
2023-05-19T01:48:47.436Z,47.53
2023-05-19T01:49:47.451Z,47.70
2023-05-19T01:50:47.417Z,48.02
2023-05-19T01:51:47.419Z,47.70
2023-05-19T01:52:47.418Z,47.05
2023-05-19T01:53:47.398Z,47.37
2023-05-19T01:54:47.412Z,47.37
2023-05-19T01:55:47.391Z,47.05
2023-05-19T01:56:47.398Z,47.37
2023-05-19T01:57:47.378Z,47.21
2023-05-19T01:58:47.387Z,47.21
2023-05-19T01:59:47.374Z,47.53
2023-05-19T02:00:47.377Z,47.86
2023-05-19T02:01:47.418Z,47.37
2023-05-19T02:02:47.384Z,47.05
2023-05-19T02:03:47.329Z,47.70
2023-05-19T02:04:47.348Z,48.18
2023-05-19T02:05:47.328Z,48.34
2023-05-19T02:06:47.318Z,47.21
2023-05-19T02:07:47.303Z,47.86
2023-05-19T02:08:47.304Z,47.86
2023-05-19T02:09:47.280Z,47.37
2023-05-19T02:10:47.293Z,48.34
2023-05-19T02:11:47.278Z,48.18
2023-05-19T02:12:47.258Z,48.18
2023-05-19T02:13:48.272Z,49.15
2023-05-19T02:14:47.256Z,47.21
2023-05-19T02:15:47.298Z,48.50
2023-05-19T02:16:47.250Z,48.34
2023-05-19T02:17:47.348Z,47.05
2023-05-19T02:18:47.285Z,48.66
2023-05-19T02:19:47.238Z,47.37
2023-05-19T02:20:47.230Z,48.66
2023-05-19T02:21:47.209Z,47.70
2023-05-19T02:22:47.197Z,48.82
2023-05-19T02:23:47.189Z,48.18
2023-05-19T02:24:47.179Z,47.86
2023-05-19T02:25:47.170Z,48.34
2023-05-19T02:26:47.198Z,47.21
2023-05-19T02:27:47.167Z,50.11
2023-05-19T02:28:47.160Z,48.98
2023-05-19T02:29:47.150Z,49.31
2023-05-19T02:30:47.149Z,49.63
2023-05-19T02:31:47.175Z,47.70
2023-05-19T02:32:47.287Z,50.43
2023-05-19T02:33:47.121Z,51.56
2023-05-19T02:34:47.119Z,50.76
2023-05-19T02:35:47.106Z,48.50
2023-05-19T02:36:47.115Z,50.27
2023-05-19T02:37:47.110Z,50.60
2023-05-19T02:38:47.084Z,49.15
2023-05-19T02:39:47.101Z,50.43
2023-05-19T02:40:47.086Z,48.98
2023-05-19T02:41:47.071Z,48.50
2023-05-19T02:42:47.085Z,50.92
2023-05-19T02:43:47.050Z,48.02
2023-05-19T02:44:47.049Z,49.79
2023-05-19T02:45:47.048Z,49.79
2023-05-19T02:46:47.170Z,49.31
2023-05-19T02:47:47.069Z,49.31
2023-05-19T02:48:47.026Z,50.11
2023-05-19T02:49:47.009Z,50.11
2023-05-19T02:50:48.001Z,49.95
2023-05-19T02:51:47.007Z,50.92
2023-05-19T02:52:46.987Z,52.05
2023-05-19T02:53:46.978Z,50.27
2023-05-19T02:54:46.971Z,50.27
2023-05-19T02:55:46.983Z,51.24
2023-05-19T02:56:46.965Z,50.43
2023-05-19T02:57:46.953Z,51.56
2023-05-19T02:58:46.950Z,51.88
2023-05-19T02:59:46.949Z,52.21
2023-05-19T03:00:46.957Z,52.05
2023-05-19T03:01:46.944Z,50.92
2023-05-19T03:02:47.006Z,49.95
2023-05-19T03:03:47.049Z,51.40
2023-05-19T03:04:46.905Z,48.82
2023-05-19T03:05:46.906Z,49.47
2023-05-19T03:06:46.915Z,50.60
2023-05-19T03:07:46.885Z,49.79
2023-05-19T03:08:46.885Z,49.79
2023-05-19T03:09:46.869Z,50.11
2023-05-19T03:10:46.867Z,49.31
2023-05-19T03:11:46.868Z,49.63
2023-05-19T03:12:46.860Z,53.01
2023-05-19T03:13:46.855Z,51.08
2023-05-19T03:14:46.850Z,51.56
2023-05-19T03:15:46.836Z,50.60
2023-05-19T03:16:46.985Z,50.92
2023-05-19T03:17:46.932Z,52.37
2023-05-19T03:18:46.852Z,52.21
2023-05-19T03:19:46.810Z,52.05
2023-05-19T03:20:46.793Z,51.24
2023-05-19T03:21:46.820Z,49.31
2023-05-19T03:22:46.794Z,50.11
2023-05-19T03:23:46.779Z,52.69
2023-05-19T03:24:46.783Z,53.82
2023-05-19T03:25:46.778Z,52.37
2023-05-19T03:26:46.777Z,49.95
2023-05-19T03:27:46.759Z,54.30
2023-05-19T03:28:46.751Z,51.88
2023-05-19T03:29:46.751Z,51.56
2023-05-19T03:30:46.732Z,49.95
2023-05-19T03:31:46.726Z,49.79
2023-05-19T03:32:46.824Z,50.27
2023-05-19T03:33:46.708Z,52.21
2023-05-19T03:34:46.704Z,50.60
2023-05-19T03:35:46.742Z,53.50
2023-05-19T03:36:46.701Z,52.21
2023-05-19T03:37:46.708Z,52.53
2023-05-19T03:38:46.690Z,52.21
2023-05-19T03:39:46.698Z,53.50
2023-05-19T03:40:46.695Z,55.43
2023-05-19T03:41:46.688Z,53.33
2023-05-19T03:42:46.657Z,52.69
2023-05-19T03:43:46.653Z,52.53
2023-05-19T03:44:46.641Z,52.85
2023-05-19T03:45:46.694Z,51.24
2023-05-19T03:46:46.640Z,52.21
2023-05-19T03:47:46.796Z,52.37
2023-05-19T03:48:46.617Z,53.01
2023-05-19T03:49:46.611Z,50.11
2023-05-19T03:50:46.605Z,51.72
2023-05-19T03:51:46.772Z,54.62
2023-05-19T03:52:46.654Z,51.88
2023-05-19T03:53:46.589Z,50.27
2023-05-19T03:54:46.613Z,49.15
2023-05-19T03:55:46.571Z,52.69
2023-05-19T03:56:46.573Z,50.76
2023-05-19T03:57:46.565Z,53.01
2023-05-19T03:58:46.548Z,53.33
2023-05-19T03:59:46.701Z,51.88
2023-05-19T04:00:46.540Z,54.30
2023-05-19T04:01:46.534Z,54.46
2023-05-19T04:02:46.625Z,53.82
2023-05-19T04:03:46.651Z,54.62
2023-05-19T04:04:46.609Z,54.30
2023-05-19T04:05:46.569Z,51.24
2023-05-19T04:06:46.505Z,54.62
2023-05-19T04:07:46.507Z,52.69
2023-05-19T04:08:46.495Z,52.53
2023-05-19T04:09:46.506Z,52.85
2023-05-19T04:10:46.498Z,52.85
2023-05-19T04:11:46.475Z,53.17
2023-05-19T04:12:46.458Z,53.33
2023-05-19T04:13:46.459Z,55.11
2023-05-19T04:14:46.482Z,53.01
2023-05-19T04:15:46.481Z,53.01
2023-05-19T04:16:46.440Z,53.82
2023-05-19T04:17:46.496Z,52.69
2023-05-19T04:18:46.657Z,52.85
2023-05-19T04:19:46.436Z,53.82
2023-05-19T04:20:46.429Z,51.88
2023-05-19T04:21:46.417Z,53.50
2023-05-19T04:22:46.405Z,53.33
2023-05-19T04:23:46.439Z,52.69
2023-05-19T04:24:46.387Z,53.01
2023-05-19T04:25:46.391Z,49.79
2023-05-19T04:26:46.382Z,52.21
2023-05-19T04:27:46.371Z,52.69
2023-05-19T04:28:46.372Z,51.56
2023-05-19T04:29:46.360Z,51.24
2023-05-19T04:30:46.463Z,53.50
2023-05-19T04:31:46.388Z,53.66
2023-05-19T04:32:46.361Z,53.01
2023-05-19T04:33:46.336Z,55.27
2023-05-19T04:34:46.360Z,52.69
2023-05-19T04:35:46.346Z,53.66
2023-05-19T04:36:46.321Z,52.69
2023-05-19T04:37:46.316Z,52.21
2023-05-19T04:38:46.303Z,52.69
2023-05-19T04:39:46.293Z,51.88
2023-05-19T04:40:46.312Z,53.98
2023-05-19T04:41:46.276Z,52.53
2023-05-19T04:42:46.295Z,54.79
2023-05-19T04:43:46.276Z,53.50
2023-05-19T04:44:46.277Z,52.69
2023-05-19T04:45:46.252Z,51.40
2023-05-19T04:46:46.286Z,52.69
2023-05-19T04:47:46.279Z,55.59
2023-05-19T04:48:46.233Z,53.66
2023-05-19T04:49:46.223Z,53.50
2023-05-19T04:50:46.216Z,53.82
2023-05-19T04:51:46.256Z,54.79
2023-05-19T04:52:46.221Z,54.14
2023-05-19T04:53:46.214Z,52.21
2023-05-19T04:54:46.200Z,52.53
2023-05-19T04:55:46.199Z,55.11
2023-05-19T04:56:46.194Z,53.98
2023-05-19T04:57:46.199Z,54.30
2023-05-19T04:58:46.189Z,50.27
2023-05-19T04:59:46.168Z,50.43
2023-05-19T05:00:46.156Z,54.14
2023-05-19T05:01:46.214Z,56.56
2023-05-19T05:02:46.259Z,58.65
2023-05-19T05:03:46.245Z,57.20
2023-05-19T05:04:46.125Z,58.49
2023-05-19T05:05:46.132Z,53.50
2023-05-19T05:06:46.109Z,50.43
2023-05-19T05:07:46.117Z,53.33
2023-05-19T05:08:46.127Z,55.43
2023-05-19T05:09:46.100Z,51.88
2023-05-19T05:10:46.090Z,52.37
2023-05-19T05:11:46.092Z,51.40
2023-05-19T05:12:46.084Z,53.82
2023-05-19T05:13:46.076Z,53.01
2023-05-19T05:14:46.117Z,54.30
2023-05-19T05:15:46.055Z,52.85
2023-05-19T05:16:46.120Z,55.59
2023-05-19T05:17:46.071Z,54.79
2023-05-19T05:18:46.061Z,55.27
2023-05-19T05:19:46.051Z,52.85
2023-05-19T05:20:46.019Z,54.14
2023-05-19T05:21:46.019Z,53.17
2023-05-19T05:22:46.008Z,53.17
2023-05-19T05:23:46.017Z,53.01
2023-05-19T05:24:46.006Z,53.66
2023-05-19T05:25:45.989Z,52.53
2023-05-19T05:26:45.989Z,53.17
2023-05-19T05:27:45.975Z,53.17
2023-05-19T05:28:45.972Z,52.37
2023-05-19T05:29:45.957Z,51.88
2023-05-19T05:30:46.005Z,53.98
2023-05-19T05:31:45.953Z,53.82
2023-05-19T05:32:45.996Z,53.01
2023-05-19T05:33:45.998Z,53.50
2023-05-19T05:34:45.952Z,52.53
2023-05-19T05:35:45.932Z,52.69
2023-05-19T05:36:45.909Z,54.30
2023-05-19T05:37:45.924Z,54.79
2023-05-19T05:38:45.906Z,54.30
2023-05-19T05:39:45.900Z,52.85
2023-05-19T05:40:45.889Z,53.50
2023-05-19T05:41:45.878Z,52.53
2023-05-19T05:42:45.882Z,54.30
2023-05-19T05:43:45.881Z,52.85
2023-05-19T05:44:45.854Z,54.30
2023-05-19T05:45:45.863Z,53.01
2023-05-19T05:46:45.858Z,52.85
2023-05-19T05:47:45.916Z,52.69
2023-05-19T05:48:45.836Z,52.21
2023-05-19T05:49:45.819Z,50.60
2023-05-19T05:50:45.849Z,52.21
2023-05-19T05:51:54.712Z,51.72
2023-05-19T05:52:47.812Z,52.69
2023-05-19T05:53:45.804Z,50.43
2023-05-19T05:54:45.791Z,50.60
2023-05-19T05:55:45.804Z,51.72
2023-05-19T05:56:45.785Z,50.92
2023-05-19T05:57:45.774Z,50.92
2023-05-19T05:58:45.793Z,50.92
2023-05-19T05:59:45.769Z,49.63
2023-05-19T06:00:45.778Z,52.37
2023-05-19T06:01:45.756Z,51.88
2023-05-19T06:02:45.848Z,51.88
2023-05-19T06:03:46.002Z,51.72
2023-05-19T06:04:45.723Z,52.69
2023-05-19T06:05:45.814Z,52.05
2023-05-19T06:06:45.723Z,54.30
2023-05-19T06:07:45.712Z,53.33
2023-05-19T06:08:45.730Z,52.85
2023-05-19T06:09:45.684Z,52.21
2023-05-19T06:10:47.376Z,52.69
2023-05-19T06:11:46.702Z,54.14
2023-05-19T06:12:45.683Z,51.88
2023-05-19T06:13:46.475Z,53.01
2023-05-19T06:14:45.709Z,53.33
2023-05-19T06:15:45.914Z,53.98
2023-05-19T06:16:45.675Z,55.11
2023-05-19T06:17:45.689Z,53.66
2023-05-19T06:18:45.886Z,51.56
2023-05-19T06:19:45.623Z,53.66
2023-05-19T06:20:45.625Z,53.50
2023-05-19T06:21:45.627Z,53.01
2023-05-19T06:22:45.605Z,51.72
2023-05-19T06:23:45.628Z,52.37
2023-05-19T06:24:45.617Z,52.37
2023-05-19T06:25:46.488Z,50.92
2023-05-19T06:26:45.616Z,50.60
2023-05-19T06:27:45.584Z,50.43
2023-05-19T06:28:46.475Z,50.43
2023-05-19T06:29:45.581Z,51.72
2023-05-19T06:30:45.550Z,48.66
2023-05-19T06:31:45.570Z,48.34
2023-05-19T06:32:45.613Z,46.89
2023-05-19T06:33:45.552Z,46.89
2023-05-19T06:34:45.537Z,47.86
2023-05-19T06:35:45.557Z,47.05
2023-05-19T06:36:45.521Z,47.37
2023-05-19T06:37:45.516Z,46.73
2023-05-19T06:38:45.521Z,47.86
2023-05-19T06:39:45.490Z,47.86
2023-05-19T06:40:45.514Z,47.37
2023-05-19T06:41:45.473Z,61.55
2023-05-19T06:42:45.491Z,60.26
2023-05-19T06:43:45.494Z,60.59
2023-05-19T06:44:45.477Z,59.62
2023-05-19T06:45:45.449Z,59.62
2023-05-19T06:46:45.524Z,59.30
2023-05-19T06:47:45.502Z,59.30
2023-05-19T06:48:45.445Z,59.62
2023-05-19T06:49:45.431Z,59.46
2023-05-19T06:50:46.437Z,59.30
2023-05-19T06:51:45.427Z,60.42
2023-05-19T06:52:45.415Z,46.08
2023-05-19T06:53:45.417Z,46.25
2023-05-19T06:54:45.413Z,44.96
2023-05-19T06:55:57.899Z,44.47
2023-05-19T06:56:47.378Z,46.41
2023-05-19T06:57:45.375Z,46.41
2023-05-19T06:58:45.396Z,56.40
2023-05-19T06:59:45.361Z,56.24
2023-05-19T07:00:45.349Z,56.24
2023-05-19T07:01:45.391Z,51.24
2023-05-19T07:02:45.393Z,50.76
2023-05-19T07:03:45.398Z,49.79
2023-05-19T07:04:45.321Z,57.20
2023-05-19T07:05:45.328Z,59.14
2023-05-19T07:06:45.332Z,43.67
2023-05-19T07:07:45.301Z,43.34
2023-05-19T07:08:45.311Z,45.12
2023-05-19T07:09:45.289Z,46.08
2023-05-19T07:10:45.300Z,46.25
2023-05-19T07:11:45.269Z,45.44
2023-05-19T07:12:46.280Z,44.47
2023-05-19T07:13:45.280Z,43.83
2023-05-19T07:14:45.268Z,47.53
2023-05-19T07:15:45.282Z,47.86
2023-05-19T07:16:45.302Z,44.63
2023-05-19T07:17:45.296Z,47.70
2023-05-19T07:18:45.258Z,46.25
2023-05-19T07:19:45.252Z,46.57
2023-05-19T07:20:45.232Z,46.08
2023-05-19T07:21:45.213Z,46.89
2023-05-19T07:22:45.220Z,47.37
2023-05-19T07:23:45.202Z,45.76
2023-05-19T07:24:45.218Z,46.89
2023-05-19T07:25:45.201Z,44.63
2023-05-19T07:26:45.173Z,45.92
2023-05-19T07:27:46.169Z,45.12
2023-05-19T07:28:45.186Z,44.79
2023-05-19T07:29:45.161Z,44.31
2023-05-19T07:30:45.181Z,43.67
2023-05-19T07:31:45.149Z,44.31
2023-05-19T07:32:45.217Z,44.79
2023-05-19T07:33:45.140Z,45.60
2023-05-19T07:34:45.122Z,44.63
2023-05-19T07:35:45.137Z,40.77
2023-05-19T07:36:45.112Z,42.70
2023-05-19T07:37:45.107Z,43.18
2023-05-19T07:38:45.137Z,43.99
2023-05-19T07:39:45.104Z,42.86
2023-05-19T07:40:45.084Z,42.86
2023-05-19T07:41:45.094Z,41.25
2023-05-19T07:42:45.083Z,42.86
2023-05-19T07:43:45.071Z,43.67
2023-05-19T07:44:45.058Z,41.41
2023-05-19T07:45:45.063Z,41.73
2023-05-19T07:46:45.050Z,42.54
2023-05-19T07:47:45.046Z,43.83
2023-05-19T07:48:45.037Z,44.79
2023-05-19T07:49:45.031Z,41.89
2023-05-19T07:50:45.010Z,44.47
2023-05-19T07:51:45.018Z,43.18
2023-05-19T07:52:44.999Z,43.18
2023-05-19T07:53:45.004Z,42.86
2023-05-19T07:54:45.005Z,40.44
2023-05-19T07:55:44.995Z,43.67
2023-05-19T07:56:44.969Z,41.89
2023-05-19T07:57:44.987Z,44.96
2023-05-19T07:58:45.957Z,42.22
2023-05-19T07:59:44.974Z,41.25
2023-05-19T08:00:44.949Z,41.41
2023-05-19T08:01:44.942Z,42.86
2023-05-19T08:02:45.044Z,42.86
2023-05-19T08:03:45.002Z,41.41
2023-05-19T08:04:44.982Z,42.06
2023-05-19T08:05:44.932Z,43.02
2023-05-19T08:06:44.909Z,43.18
2023-05-19T08:07:44.907Z,43.51
2023-05-19T08:08:44.893Z,43.18
2023-05-19T08:09:44.878Z,45.28
2023-05-19T08:10:44.911Z,45.12
2023-05-19T08:11:44.888Z,45.76
2023-05-19T08:12:44.857Z,43.83
2023-05-19T08:13:44.858Z,44.96
2023-05-19T08:14:44.864Z,44.79
2023-05-19T08:15:44.944Z,43.67
2023-05-19T08:16:44.850Z,43.83
2023-05-19T08:17:44.868Z,45.92
2023-05-19T08:18:44.891Z,43.83
2023-05-19T08:19:44.820Z,45.92
2023-05-19T08:20:44.816Z,45.76
2023-05-19T08:21:44.843Z,46.25
2023-05-19T08:22:44.806Z,46.41
2023-05-19T08:23:44.804Z,43.34
2023-05-19T08:24:44.837Z,43.34
2023-05-19T08:25:44.794Z,46.25
2023-05-19T08:26:44.854Z,45.28
2023-05-19T08:27:44.773Z,43.99
2023-05-19T08:28:44.768Z,43.02
2023-05-19T08:29:44.753Z,43.18
2023-05-19T08:30:44.768Z,43.02
2023-05-19T08:31:44.776Z,44.31
2023-05-19T08:32:44.752Z,47.70
2023-05-19T08:33:44.727Z,45.28
2023-05-19T08:34:44.751Z,42.06
2023-05-19T08:35:44.757Z,43.34
2023-05-19T08:36:44.715Z,42.70
2023-05-19T08:37:44.744Z,42.06
2023-05-19T08:38:44.698Z,42.22
2023-05-19T08:39:44.689Z,44.79
2023-05-19T08:40:44.697Z,46.25
2023-05-19T08:41:44.679Z,44.31
2023-05-19T08:42:44.700Z,41.89
2023-05-19T08:43:44.676Z,41.09
2023-05-19T08:44:44.657Z,44.63
2023-05-19T08:45:44.657Z,43.83
2023-05-19T08:46:44.743Z,45.92
2023-05-19T08:47:44.684Z,43.83
2023-05-19T08:48:44.640Z,40.61
2023-05-19T08:49:44.654Z,43.83
2023-05-19T08:50:44.628Z,43.02
2023-05-19T08:51:44.616Z,46.73
2023-05-19T08:52:46.829Z,43.02
2023-05-19T08:53:44.607Z,44.15
2023-05-19T08:54:44.629Z,44.79
2023-05-19T08:55:44.595Z,45.92
2023-05-19T08:56:44.623Z,47.21
2023-05-19T08:57:44.568Z,45.28
2023-05-19T08:58:44.569Z,44.15
2023-05-19T08:59:44.586Z,44.47
2023-05-19T09:00:44.576Z,43.99
2023-05-19T09:01:44.572Z,46.25
2023-05-19T09:02:55.034Z,47.86
2023-05-19T09:03:46.643Z,45.28
2023-05-19T09:04:44.640Z,46.57
2023-05-19T09:05:44.602Z,46.08
2023-05-19T09:06:44.539Z,45.12
2023-05-19T09:07:44.524Z,44.31
2023-05-19T09:08:44.516Z,44.15
2023-05-19T09:09:44.958Z,46.89
2023-05-19T09:10:44.512Z,46.89
2023-05-19T09:11:44.498Z,45.76
2023-05-19T09:12:44.484Z,46.41
2023-05-19T09:13:44.483Z,46.73
2023-05-19T09:14:44.475Z,44.96
2023-05-19T09:15:44.480Z,47.70
2023-05-19T09:16:44.504Z,45.12
2023-05-19T09:17:44.552Z,46.89
2023-05-19T09:18:44.507Z,47.70
2023-05-19T09:19:44.448Z,46.73
2023-05-19T09:20:44.462Z,45.76
2023-05-19T09:21:44.690Z,45.28
2023-05-19T09:22:45.434Z,46.57
2023-05-19T09:23:44.420Z,47.37
2023-05-19T09:24:44.414Z,45.76
2023-05-19T09:25:44.416Z,46.89
2023-05-19T09:26:44.400Z,47.21
2023-05-19T09:27:45.404Z,46.89
2023-05-19T09:28:44.394Z,46.41
2023-05-19T09:29:44.404Z,45.28
2023-05-19T09:30:44.377Z,45.28
2023-05-19T09:31:44.428Z,46.57
2023-05-19T09:32:44.731Z,45.12
2023-05-19T09:33:46.012Z,46.73
2023-05-19T09:34:45.346Z,44.63
2023-05-19T09:35:44.366Z,45.60
2023-05-19T09:36:44.358Z,45.12
2023-05-19T09:37:44.327Z,43.34
2023-05-19T09:38:44.342Z,43.18
2023-05-19T09:39:44.349Z,44.96
2023-05-19T09:40:44.318Z,45.28
2023-05-19T09:41:44.338Z,42.86
2023-05-19T09:42:44.325Z,46.25
2023-05-19T09:43:44.313Z,45.76
2023-05-19T09:44:44.299Z,43.99
2023-05-19T09:45:44.334Z,44.15
2023-05-19T09:46:44.515Z,43.51
2023-05-19T09:47:44.330Z,43.34
2023-05-19T09:48:44.270Z,43.67
2023-05-19T09:49:44.263Z,45.92
2023-05-19T09:50:44.260Z,43.99
2023-05-19T09:51:44.253Z,44.63
2023-05-19T09:52:44.255Z,44.47
2023-05-19T09:53:44.221Z,47.53
2023-05-19T09:54:44.263Z,45.60
2023-05-19T09:55:44.240Z,44.96
2023-05-19T09:56:44.214Z,45.12
2023-05-19T09:57:44.314Z,44.63
2023-05-19T09:58:44.206Z,44.96
2023-05-19T09:59:44.214Z,43.83
2023-05-19T10:00:44.215Z,44.47
2023-05-19T10:01:44.292Z,44.79
2023-05-19T10:02:44.343Z,45.60
2023-05-19T10:03:44.185Z,44.31
2023-05-19T10:04:44.252Z,44.31
2023-05-19T10:05:44.164Z,45.28
2023-05-19T10:06:44.165Z,43.83
2023-05-19T10:07:44.144Z,44.15
2023-05-19T10:08:44.176Z,46.25
2023-05-19T10:09:44.150Z,45.12
2023-05-19T10:10:44.146Z,43.51
2023-05-19T10:11:44.151Z,39.96
2023-05-19T10:12:44.121Z,44.47
2023-05-19T10:13:44.116Z,44.15
2023-05-19T10:14:44.105Z,43.18
2023-05-19T10:15:57.337Z,44.79
2023-05-19T10:16:46.112Z,43.02
2023-05-19T10:17:44.132Z,43.83
2023-05-19T10:18:44.105Z,43.67
2023-05-19T10:19:44.069Z,45.28
2023-05-19T10:20:44.069Z,43.34
2023-05-19T10:21:44.066Z,43.02
2023-05-19T10:22:44.074Z,46.25
2023-05-19T10:23:44.081Z,46.41
2023-05-19T10:24:44.044Z,46.25
2023-05-19T10:25:44.038Z,45.92
2023-05-19T10:26:44.033Z,44.63
2023-05-19T10:27:44.084Z,45.44
2023-05-19T10:28:44.053Z,44.31
2023-05-19T10:29:44.016Z,44.63
2023-05-19T10:30:44.002Z,43.67
2023-05-19T10:31:45.013Z,45.60
2023-05-19T10:32:44.066Z,48.34
2023-05-19T10:33:44.017Z,45.60
2023-05-19T10:34:43.999Z,44.15
2023-05-19T10:35:45.202Z,43.18
2023-05-19T10:36:43.958Z,45.44
2023-05-19T10:37:44.000Z,46.25
2023-05-19T10:38:43.975Z,42.54
2023-05-19T10:39:43.964Z,42.70
2023-05-19T10:40:43.936Z,41.73
2023-05-19T10:41:45.015Z,47.05
2023-05-19T10:42:43.924Z,43.67
2023-05-19T10:43:43.926Z,41.57
2023-05-19T10:44:43.930Z,43.83
2023-05-19T10:45:43.920Z,43.34
2023-05-19T10:46:43.955Z,44.96
2023-05-19T10:47:43.918Z,44.79
2023-05-19T10:48:43.894Z,44.47
2023-05-19T10:49:43.893Z,42.54
2023-05-19T10:50:43.892Z,45.12
2023-05-19T10:51:43.875Z,44.79
2023-05-19T10:52:43.865Z,43.67
2023-05-19T10:53:43.855Z,45.44
2023-05-19T10:54:43.871Z,44.47
2023-05-19T10:55:43.859Z,43.18
2023-05-19T10:56:43.844Z,44.79
2023-05-19T10:57:43.841Z,41.89
2023-05-19T10:58:43.842Z,41.57
2023-05-19T10:59:43.841Z,42.22
2023-05-19T11:00:43.832Z,41.89
2023-05-19T11:01:43.842Z,40.44
2023-05-19T11:02:43.909Z,40.61
2023-05-19T11:03:43.836Z,41.41
2023-05-19T11:04:43.830Z,41.09
2023-05-19T11:05:43.805Z,41.41
2023-05-19T11:06:43.811Z,42.70
2023-05-19T11:07:43.772Z,42.70
2023-05-19T11:08:43.766Z,44.31
2023-05-19T11:09:43.774Z,45.76
2023-05-19T11:10:43.773Z,44.63
2023-05-19T11:11:43.809Z,42.38
2023-05-19T11:12:43.762Z,43.51
2023-05-19T11:13:43.822Z,43.99
2023-05-19T11:14:43.750Z,45.92
2023-05-19T11:15:43.732Z,43.99
2023-05-19T11:16:43.764Z,45.92
2023-05-19T11:17:43.726Z,46.73
2023-05-19T11:18:43.791Z,48.82
2023-05-19T11:19:43.720Z,45.60
2023-05-19T11:20:43.734Z,46.41
2023-05-19T11:21:43.722Z,47.21
2023-05-19T11:22:43.689Z,45.92
2023-05-19T11:23:43.717Z,45.76
2023-05-19T11:24:43.753Z,45.28
2023-05-19T11:25:43.681Z,43.99
2023-05-19T11:26:43.678Z,44.31
2023-05-19T11:27:43.680Z,42.22
2023-05-19T11:28:43.656Z,45.92
2023-05-19T11:29:43.645Z,44.31
2023-05-19T11:30:43.640Z,43.34
2023-05-19T11:31:43.702Z,43.34
2023-05-19T11:32:43.662Z,42.86
2023-05-19T11:33:43.624Z,46.08
2023-05-19T11:34:43.615Z,44.96
2023-05-19T11:35:43.602Z,43.51
2023-05-19T11:36:43.603Z,45.28
2023-05-19T11:37:43.629Z,44.63
2023-05-19T11:38:43.596Z,46.25
2023-05-19T11:39:43.594Z,45.44
2023-05-19T11:40:43.581Z,44.47
2023-05-19T11:41:43.597Z,46.08
2023-05-19T11:42:43.569Z,45.44
2023-05-19T11:43:43.596Z,44.79
2023-05-19T11:44:43.568Z,46.73
2023-05-19T11:45:43.592Z,44.31
2023-05-19T11:46:43.617Z,44.79
2023-05-19T11:48:00.114Z,45.60
2023-05-19T11:48:45.610Z,43.99
2023-05-19T11:49:43.529Z,46.41
2023-05-19T11:50:43.558Z,44.79
2023-05-19T11:51:43.530Z,43.51
2023-05-19T11:52:43.512Z,44.79
2023-05-19T11:53:43.530Z,45.92
2023-05-19T11:54:43.507Z,45.12
2023-05-19T11:55:43.518Z,46.57
2023-05-19T11:56:43.491Z,46.41
2023-05-19T11:57:49.606Z,47.21
2023-05-19T11:58:45.486Z,47.05
2023-05-19T11:59:43.483Z,46.25
2023-05-19T12:00:43.494Z,45.28
2023-05-19T12:01:43.501Z,48.02
2023-05-19T12:02:43.549Z,44.79
2023-05-19T12:03:43.486Z,45.76
2023-05-19T12:04:43.478Z,45.44
2023-05-19T12:05:44.085Z,44.79
2023-05-19T12:06:43.519Z,45.76
2023-05-19T12:07:43.431Z,43.99
2023-05-19T12:08:43.429Z,45.12
2023-05-19T12:09:43.437Z,47.21
2023-05-19T12:10:43.446Z,45.76
2023-05-19T12:11:43.414Z,46.41
2023-05-19T12:12:43.416Z,48.34
2023-05-19T12:13:43.395Z,47.70
2023-05-19T12:14:43.395Z,46.25
2023-05-19T12:15:43.477Z,45.60
2023-05-19T12:16:43.486Z,46.08
2023-05-19T12:17:43.377Z,45.44
2023-05-19T12:18:43.392Z,47.21
2023-05-19T12:19:43.377Z,46.25
2023-05-19T12:20:43.360Z,45.12
2023-05-19T12:21:43.359Z,45.12
2023-05-19T12:22:43.336Z,44.31
2023-05-19T12:23:43.353Z,44.31
2023-05-19T12:24:43.330Z,43.51
2023-05-19T12:25:43.325Z,42.22
2023-05-19T12:26:43.429Z,43.99
2023-05-19T12:27:43.310Z,44.79
2023-05-19T12:28:43.351Z,44.96
2023-05-19T12:29:43.298Z,46.25
2023-05-19T12:30:43.302Z,45.76
2023-05-19T12:31:43.325Z,47.86
2023-05-19T12:32:43.316Z,47.05
2023-05-19T12:33:43.394Z,45.92
2023-05-19T12:34:43.272Z,47.21
2023-05-19T12:35:43.285Z,47.37
2023-05-19T12:36:43.251Z,46.57
2023-05-19T12:37:44.255Z,48.18
2023-05-19T12:38:43.263Z,47.37
2023-05-19T12:39:43.241Z,46.08
2023-05-19T12:40:43.246Z,46.08
2023-05-19T12:41:43.238Z,45.44
2023-05-19T12:42:43.257Z,47.05
2023-05-19T12:43:43.219Z,47.21
2023-05-19T12:44:43.208Z,48.98
2023-05-19T12:45:43.191Z,48.18
2023-05-19T12:46:43.199Z,46.41
2023-05-19T12:47:43.227Z,49.63
2023-05-19T12:48:43.205Z,44.96
2023-05-19T12:49:43.178Z,46.57
2023-05-19T12:50:43.178Z,46.25
2023-05-19T12:51:43.159Z,49.31
2023-05-19T12:52:43.160Z,48.02